Time;durP1;ratioP1;P1;durP2;ratioP2;P2;SDS_P1;SDS_P2;PMS_P1;PMS_P2;Temp;Humidity;BMP_temperature;BMP_pressure;BME280_temperature;BME280_humidity;BME280_pressure;Samples;Min_cycle;Max_cycle;Signal;HPM_P1;HPM_P2
2022/11/19 00:00:21;;;;;;;30.70;19.77;;;-0.70;99.90;;;;;;5063801;28;20020;-82
2022/11/19 00:02:48;;;;;;;30.42;19.80;;;-0.80;99.90;;;;;;5065828;28;20469;-83
2022/11/19 00:05:14;;;;;;;30.45;20.13;;;-0.80;99.90;;;;;;5065447;28;20107;-84
2022/11/19 00:07:40;;;;;;;35.47;21.40;;;-0.80;99.90;;;;;;5065359;28;20128;-83
2022/11/19 00:10:06;;;;;;;32.20;20.60;;;-0.90;99.90;;;;;;5065358;28;20028;-83
2022/11/19 00:15:16;;;;;;;29.08;18.63;;;-0.90;99.90;;;;;;5065641;28;20043;-83
2022/11/19 00:17:41;;;;;;;31.48;20.20;;;-1.00;99.90;;;;;;5065755;28;20025;-83
2022/11/19 00:20:07;;;;;;;30.00;20.40;;;-1.00;99.90;;;;;;5063690;28;20354;-83
2022/11/19 00:22:33;;;;;;;29.83;18.30;;;-1.10;99.90;;;;;;5065704;28;20025;-83
2022/11/19 00:24:58;;;;;;;30.88;18.95;;;-1.10;99.90;;;;;;5064723;28;20461;-84
2022/11/19 00:27:24;;;;;;;30.15;19.10;;;-1.20;99.90;;;;;;5065243;28;20025;-83
2022/11/19 00:29:51;;;;;;;29.20;20.00;;;-1.20;99.90;;;;;;5063133;28;20059;-83
2022/11/19 00:32:16;;;;;;;32.13;20.15;;;-1.20;99.90;;;;;;5061803;28;20031;-83
2022/11/19 00:34:42;;;;;;;31.75;20.13;;;-1.30;99.90;;;;;;5063881;28;20024;-83
2022/11/19 00:37:08;;;;;;;30.80;19.67;;;-1.30;99.90;;;;;;5061757;28;20032;-83
2022/11/19 00:39:33;;;;;;;27.95;18.48;;;-1.30;99.90;;;;;;5065242;28;20021;-83
2022/11/19 00:41:59;;;;;;;28.77;18.80;;;-1.40;99.90;;;;;;5065011;28;20047;-83
2022/11/19 00:44:26;;;;;;;33.28;21.23;;;-1.40;99.90;;;;;;5064503;28;20142;-81
2022/11/19 00:46:52;;;;;;;33.70;20.08;;;-1.40;99.90;;;;;;5065158;28;20028;-83
2022/11/19 00:49:17;;;;;;;29.98;19.58;;;-1.40;99.90;;;;;;5067792;28;20051;-83
2022/11/19 00:51:43;;;;;;;34.85;21.02;;;-1.50;99.90;;;;;;5065214;28;20036;-84
2022/11/19 00:54:08;;;;;;;33.13;20.52;;;-1.50;99.90;;;;;;5070060;28;20402;-83
2022/11/19 00:56:34;;;;;;;30.77;20.38;;;-1.60;99.90;;;;;;5067772;28;20020;-84
2022/11/19 00:59:00;;;;;;;32.47;19.83;;;-1.60;99.90;;;;;;5065250;28;20094;-83
2022/11/19 01:01:25;;;;;;;32.90;18.90;;;-1.60;99.90;;;;;;5069072;28;20005;-82
2022/11/19 01:03:51;;;;;;;30.70;20.55;;;-1.70;99.90;;;;;;5067959;28;20027;-83
2022/11/19 01:06:19;;;;;;;30.80;20.55;;;-1.70;99.90;;;;;;5064916;28;20016;-83
2022/11/19 01:08:46;;;;;;;32.83;20.63;;;-1.70;99.90;;;;;;5069805;28;20036;-82
2022/11/19 01:11:16;;;;;;;28.15;18.40;;;-1.80;99.90;;;;;;5069436;28;20040;-83
2022/11/19 01:13:42;;;;;;;33.47;19.35;;;-1.90;99.90;;;;;;5067414;28;20121;-83
2022/11/19 01:16:15;;;;;;;34.03;20.63;;;-1.90;99.90;;;;;;5067491;28;20047;-83
2022/11/19 01:18:42;;;;;;;30.92;20.02;;;-2.00;99.90;;;;;;5066207;28;20438;-84
2022/11/19 01:21:11;;;;;;;28.80;19.08;;;-2.00;99.90;;;;;;5067646;28;20081;-82
2022/11/19 01:23:40;;;;;;;33.33;19.70;;;-2.10;99.90;;;;;;5065865;28;20028;-83
2022/11/19 01:26:07;;;;;;;29.13;19.10;;;-2.10;99.90;;;;;;5068850;28;20400;-83
2022/11/19 01:28:33;;;;;;;29.05;18.13;;;-2.20;99.90;;;;;;5066764;28;20025;-83
2022/11/19 01:30:59;;;;;;;28.50;18.45;;;-2.20;99.90;;;;;;5064979;28;20040;-82
2022/11/19 01:33:27;;;;;;;27.67;17.60;;;-2.20;99.90;;;;;;5068675;28;20024;-80
2022/11/19 01:36:02;;;;;;;31.17;19.88;;;-2.10;99.90;;;;;;5061131;28;20090;-81
2022/11/19 01:38:28;;;;;;;28.40;18.65;;;-2.10;99.90;;;;;;5068382;28;20017;-83
2022/11/19 01:40:56;;;;;;;26.58;17.65;;;-2.10;99.90;;;;;;5064273;28;20469;-83
2022/11/19 01:43:43;;;;;;;23.27;16.67;;;-2.20;99.90;;;;;;5067063;28;20518;-83
2022/11/19 01:46:11;;;;;;;27.98;16.38;;;-2.20;99.90;;;;;;5067286;28;20017;-83
2022/11/19 01:48:44;;;;;;;23.75;16.08;;;-2.10;99.90;;;;;;5059153;28;20028;-82
2022/11/19 01:51:18;;;;;;;27.98;16.80;;;-2.10;99.90;;;;;;5063578;28;20045;-83
2022/11/19 01:53:47;;;;;;;26.35;16.38;;;-2.10;99.90;;;;;;5067364;28;20028;-83
2022/11/19 01:56:16;;;;;;;26.58;16.38;;;-2.20;99.90;;;;;;5067326;28;20047;-83
2022/11/19 01:58:46;;;;;;;24.80;16.75;;;-2.20;99.90;;;;;;5067540;28;20050;-84
2022/11/19 02:01:12;;;;;;;24.45;16.40;;;-2.20;99.90;;;;;;5065260;28;20103;-83
2022/11/19 02:03:39;;;;;;;23.13;15.20;;;-2.30;99.90;;;;;;5066331;28;20033;-83
2022/11/19 02:06:06;;;;;;;26.58;16.27;;;-2.40;99.90;;;;;;5067054;28;20107;-84
2022/11/19 02:08:42;;;;;;;24.60;15.68;;;-2.40;99.90;;;;;;5066247;28;20033;-84
2022/11/19 02:11:36;;;;;;;25.15;16.55;;;-2.50;99.90;;;;;;5064474;28;20063;-83
2022/11/19 02:14:20;;;;;;;20.17;14.65;;;-2.50;99.90;;;;;;5044784;28;20036;-84
2022/11/19 02:17:01;;;;;;;26.88;16.73;;;-2.50;99.90;;;;;;5065536;28;20037;-84
2022/11/19 02:19:37;;;;;;;23.60;14.60;;;-2.60;99.90;;;;;;5064871;28;20131;-83
2022/11/19 02:22:25;;;;;;;24.50;15.77;;;-2.60;99.90;;;;;;5064937;28;20090;-83
2022/11/19 02:24:52;;;;;;;22.50;14.73;;;-2.70;99.90;;;;;;5065072;28;20028;-83
2022/11/19 02:27:39;;;;;;;25.23;15.63;;;-2.70;99.90;;;;;;5067136;28;20027;-84
2022/11/19 02:30:11;;;;;;;27.50;16.10;;;-2.70;99.90;;;;;;5056218;28;20164;-82
2022/11/19 02:32:46;;;;;;;24.58;15.65;;;-2.70;99.90;;;;;;5065376;28;20028;-83
2022/11/19 02:35:27;;;;;;;25.50;16.10;;;-2.70;99.90;;;;;;5064241;28;20024;-83
2022/11/19 02:38:01;;;;;;;24.50;15.10;;;-2.80;99.90;;;;;;5062093;28;20076;-83
2022/11/19 02:40:45;;;;;;;24.38;15.70;;;-2.80;99.90;;;;;;5064012;28;20041;-83
2022/11/19 02:43:35;;;;;;;27.48;16.48;;;-2.90;99.90;;;;;;5065506;28;20078;-83
2022/11/19 02:46:07;;;;;;;27.35;14.80;;;-2.90;99.90;;;;;;5062368;28;20039;-84
2022/11/19 02:48:40;;;;;;;27.55;15.07;;;-3.00;99.90;;;;;;5065526;28;20413;-83
2022/11/19 02:51:07;;;;;;;23.17;14.38;;;-3.00;99.90;;;;;;5061657;28;20040;-84
2022/11/19 02:53:33;;;;;;;23.42;15.57;;;-3.00;99.90;;;;;;5062482;28;20048;-83
2022/11/19 02:56:30;;;;;;;22.38;15.02;;;-3.00;99.90;;;;;;5066609;28;20365;-83
2022/11/19 03:04:31;;;;;;;24.58;15.25;;;-3.00;99.90;;;;;;5064366;28;20039;-83
2022/11/19 03:07:08;;;;;;;22.23;13.90;;;-3.10;99.90;;;;;;5064525;28;20134;-83
2022/11/19 03:09:56;;;;;;;24.58;15.02;;;-3.00;99.90;;;;;;5059542;28;20060;-83
2022/11/19 03:12:38;;;;;;;24.25;14.60;;;-3.10;99.90;;;;;;5060347;28;20021;-83
2022/11/19 03:18:22;;;;;;;21.35;14.00;;;-3.10;99.90;;;;;;5062300;28;20039;-84
2022/11/19 03:20:53;;;;;;;28.98;14.85;;;-3.10;99.90;;;;;;5067397;28;20453;-84
2022/11/19 03:23:30;;;;;;;25.55;16.23;;;-3.10;99.90;;;;;;5060140;28;20044;-84
2022/11/19 03:26:02;;;;;;;25.63;16.60;;;-3.10;99.90;;;;;;5061437;28;20029;-84
2022/11/19 03:28:33;;;;;;;24.70;16.55;;;-3.10;99.90;;;;;;5062161;28;20056;-84
2022/11/19 03:31:01;;;;;;;25.42;15.93;;;-3.10;99.90;;;;;;5063377;28;20068;-84
2022/11/19 03:33:42;;;;;;;24.27;14.95;;;-3.10;99.90;;;;;;5066252;28;20032;-84
2022/11/19 03:36:13;;;;;;;27.15;16.20;;;-3.10;99.90;;;;;;5062491;28;20020;-84
2022/11/19 03:38:45;;;;;;;24.00;15.10;;;-3.10;99.90;;;;;;5065176;28;20066;-83
2022/11/19 03:41:16;;;;;;;24.17;15.60;;;-3.10;99.90;;;;;;5063357;28;20461;-83
2022/11/19 03:43:44;;;;;;;22.00;14.38;;;-3.10;99.90;;;;;;5066637;28;20024;-84
2022/11/19 03:46:14;;;;;;;24.25;14.45;;;-3.20;99.90;;;;;;5056926;28;20043;-84
2022/11/19 03:48:45;;;;;;;26.00;14.35;;;-3.20;99.90;;;;;;5061880;28;20370;-84
2022/11/19 03:51:24;;;;;;;26.63;15.50;;;-3.20;99.90;;;;;;5061543;28;20393;-84
2022/11/19 03:53:50;;;;;;;23.35;14.73;;;-3.30;99.90;;;;;;5064984;28;20035;-83
2022/11/19 03:56:22;;;;;;;25.50;14.32;;;-3.20;99.90;;;;;;5064193;28;20036;-82
2022/11/19 03:58:48;;;;;;;26.30;14.93;;;-3.30;99.90;;;;;;5064961;28;20037;-84
2022/11/19 04:01:14;;;;;;;19.95;12.75;;;-3.30;99.90;;;;;;5059802;28;20451;-84
2022/11/19 04:04:34;;;;;;;27.45;14.45;;;-3.30;99.90;;;;;;5064371;28;20434;-84
2022/11/19 04:06:25;;;;;;;22.48;13.25;;;-3.30;99.90;;;;;;5066052;28;20334;-84
2022/11/19 04:08:51;;;;;;;20.80;13.30;;;-3.30;99.90;;;;;;5061631;28;20059;-85
2022/11/19 04:11:17;;;;;;;21.95;13.45;;;-3.30;99.90;;;;;;5062150;28;20476;-84
2022/11/19 04:13:42;;;;;;;20.08;12.55;;;-3.30;99.90;;;;;;5065914;28;20078;-83
2022/11/19 04:16:08;;;;;;;17.92;12.07;;;-3.40;99.90;;;;;;5064766;28;20365;-84
2022/11/19 04:18:33;;;;;;;21.20;12.93;;;-3.40;99.90;;;;;;5070088;28;20056;-84
2022/11/19 04:20:59;;;;;;;21.83;13.85;;;-3.40;99.90;;;;;;5064369;28;20027;-85
2022/11/19 04:23:24;;;;;;;22.45;13.52;;;-3.40;99.90;;;;;;5067598;28;20236;-84
2022/11/19 04:25:50;;;;;;;21.02;12.90;;;-3.40;99.90;;;;;;5069457;28;20056;-84
2022/11/19 04:28:16;;;;;;;23.30;14.52;;;-3.40;99.90;;;;;;5062903;28;20109;-83
2022/11/19 04:30:42;;;;;;;23.55;13.25;;;-3.40;99.90;;;;;;5068868;28;20028;-84
2022/11/19 04:33:08;;;;;;;22.88;13.65;;;-3.40;99.90;;;;;;5073131;28;20025;-85
2022/11/19 04:35:33;;;;;;;22.23;13.70;;;-3.40;99.90;;;;;;5070373;28;20027;-86
2022/11/19 04:37:59;;;;;;;22.40;13.90;;;-3.50;99.90;;;;;;5070037;28;20063;-85
2022/11/19 04:40:25;;;;;;;21.80;14.07;;;-3.50;99.90;;;;;;5069552;28;20029;-85
2022/11/19 04:42:50;;;;;;;21.35;13.63;;;-3.50;99.90;;;;;;5066459;28;20025;-84
2022/11/19 04:45:16;;;;;;;19.33;13.27;;;-3.50;99.90;;;;;;5070602;28;20024;-85
2022/11/19 04:47:41;;;;;;;22.92;12.90;;;-3.60;99.90;;;;;;5070357;28;20520;-84
2022/11/19 04:50:07;;;;;;;22.48;13.77;;;-3.60;99.90;;;;;;5069550;28;20049;-84
2022/11/19 04:52:33;;;;;;;19.38;13.02;;;-3.60;99.90;;;;;;5068212;28;20063;-84
2022/11/19 04:54:59;;;;;;;19.20;12.93;;;-3.60;99.90;;;;;;5069457;28;20040;-85
2022/11/19 04:57:24;;;;;;;20.60;12.57;;;-3.70;99.90;;;;;;5066980;28;20071;-84
2022/11/19 04:59:50;;;;;;;22.30;14.45;;;-3.80;99.90;;;;;;5069797;28;20024;-83
2022/11/19 05:02:15;;;;;;;22.23;12.88;;;-3.70;99.90;;;;;;5065678;28;20067;-84
2022/11/19 05:04:41;;;;;;;17.20;10.98;;;-3.70;99.90;;;;;;5068848;28;20056;-84
2022/11/19 05:07:06;;;;;;;19.70;12.13;;;-3.90;99.90;;;;;;5068894;28;20411;-84
2022/11/19 05:09:32;;;;;;;19.23;11.38;;;-3.80;99.90;;;;;;5069675;28;20062;-84
2022/11/19 05:12:01;;;;;;;19.90;12.18;;;-3.80;99.90;;;;;;5068018;28;20040;-84
2022/11/19 05:14:26;;;;;;;16.40;11.98;;;-3.90;99.90;;;;;;5068977;28;20024;-84
2022/11/19 05:16:52;;;;;;;21.27;12.52;;;-3.80;99.90;;;;;;5068564;28;20021;-84
2022/11/19 05:19:17;;;;;;;18.15;11.75;;;-3.90;99.90;;;;;;5069614;28;20021;-84
2022/11/19 05:21:43;;;;;;;16.90;11.15;;;-3.90;99.90;;;;;;5065871;28;20021;-84
2022/11/19 05:24:09;;;;;;;19.05;11.20;;;-3.90;99.90;;;;;;5068016;28;20016;-83
2022/11/19 05:26:34;;;;;;;17.83;10.73;;;-3.90;99.90;;;;;;5063675;28;20735;-84
2022/11/19 05:29:00;;;;;;;22.13;12.35;;;-3.90;99.90;;;;;;5068304;28;20029;-83
2022/11/19 05:31:26;;;;;;;19.35;11.25;;;-3.90;99.90;;;;;;5068349;28;20111;-84
2022/11/19 05:33:51;;;;;;;16.67;11.18;;;-3.90;99.90;;;;;;5064303;28;20082;-85
2022/11/19 05:36:17;;;;;;;18.38;11.50;;;-3.90;99.90;;;;;;5069421;28;20016;-84
2022/11/19 05:38:43;;;;;;;18.83;11.13;;;-3.90;99.90;;;;;;5070059;28;20051;-84
2022/11/19 05:41:08;;;;;;;20.10;11.73;;;-4.00;99.90;;;;;;5068971;28;20090;-82
2022/11/19 05:43:34;;;;;;;19.02;12.55;;;-3.90;99.90;;;;;;5069391;28;20016;-84
2022/11/19 05:46:01;;;;;;;17.27;11.15;;;-3.90;99.90;;;;;;5067656;28;20381;-84
2022/11/19 05:48:28;;;;;;;18.08;11.13;;;-4.00;99.90;;;;;;5064752;28;20024;-83
2022/11/19 05:50:54;;;;;;;16.52;10.80;;;-4.00;99.90;;;;;;5069455;28;20078;-84
2022/11/19 05:53:20;;;;;;;17.30;11.70;;;-4.10;99.90;;;;;;5068561;28;20012;-83
2022/11/19 05:55:46;;;;;;;19.25;12.05;;;-4.10;99.90;;;;;;5069488;28;20027;-84
2022/11/19 05:58:12;;;;;;;18.92;10.73;;;-4.10;99.90;;;;;;5069757;28;20046;-83
2022/11/19 06:00:38;;;;;;;16.52;10.57;;;-4.10;99.90;;;;;;5068651;28;20047;-84
2022/11/19 06:03:04;;;;;;;19.50;11.98;;;-4.00;99.90;;;;;;5069475;28;20453;-84
2022/11/19 06:05:30;;;;;;;18.58;11.75;;;-4.00;99.90;;;;;;5068270;28;20024;-84
2022/11/19 06:07:56;;;;;;;20.55;11.60;;;-4.10;99.90;;;;;;5068728;28;20538;-84
2022/11/19 06:10:22;;;;;;;19.38;11.27;;;-4.10;99.90;;;;;;5060608;28;20136;-84
2022/11/19 06:12:47;;;;;;;16.83;10.45;;;-4.10;99.90;;;;;;5066370;28;20039;-84
2022/11/19 06:15:13;;;;;;;23.60;11.75;;;-4.10;99.90;;;;;;5066077;28;20036;-84
2022/11/19 06:17:39;;;;;;;27.92;14.95;;;-4.10;99.90;;;;;;5067413;28;20398;-84
2022/11/19 06:20:07;;;;;;;35.80;15.80;;;-4.10;99.90;;;;;;5066572;28;20224;-84
2022/11/19 06:22:33;;;;;;;71.07;27.08;;;-4.10;99.90;;;;;;5067143;28;20052;-83
2022/11/19 06:25:00;;;;;;;77.90;28.45;;;-4.10;99.90;;;;;;5068198;28;20354;-83
2022/11/19 06:27:26;;;;;;;59.45;23.10;;;-4.20;99.90;;;;;;5065676;28;20385;-84
2022/11/19 06:29:51;;;;;;;31.15;14.68;;;-4.20;99.90;;;;;;5062765;28;20103;-84
2022/11/19 06:32:17;;;;;;;30.95;14.50;;;-4.20;99.90;;;;;;5066137;28;20044;-84
2022/11/19 06:34:43;;;;;;;28.92;15.20;;;-4.20;99.90;;;;;;5069037;28;20081;-84
2022/11/19 06:37:08;;;;;;;41.75;17.90;;;-4.30;99.90;;;;;;5066725;28;20028;-84
2022/11/19 06:39:34;;;;;;;30.05;15.02;;;-4.30;99.90;;;;;;5063565;28;20079;-84
2022/11/19 06:42:34;;;;;;;27.48;14.65;;;-4.30;99.90;;;;;;5060570;28;20169;-83
2022/11/19 06:44:45;;;;;;;35.28;17.42;;;-4.30;99.90;;;;;;5061119;28;20111;-84
2022/11/19 06:47:11;;;;;;;25.23;14.82;;;-4.30;99.90;;;;;;5064880;28;20029;-83
2022/11/19 06:49:36;;;;;;;21.83;13.48;;;-4.30;99.90;;;;;;5061659;28;20063;-84
2022/11/19 06:52:02;;;;;;;22.90;13.38;;;-4.30;99.90;;;;;;5060696;28;20469;-84
2022/11/19 06:54:28;;;;;;;21.90;12.38;;;-4.30;99.90;;;;;;5062735;28;20107;-84
2022/11/19 06:56:53;;;;;;;22.58;12.65;;;-4.30;99.90;;;;;;5062054;28;20103;-85
2022/11/19 06:59:19;;;;;;;19.15;11.93;;;-4.30;99.90;;;;;;5062305;28;20024;-84
2022/11/19 07:01:44;;;;;;;22.73;13.18;;;-4.30;99.90;;;;;;5061869;28;20676;-84
2022/11/19 07:04:10;;;;;;;22.63;13.25;;;-4.30;99.90;;;;;;5064807;28;20328;-84
2022/11/19 07:06:36;;;;;;;25.17;14.25;;;-4.30;99.90;;;;;;5062901;28;20108;-84
2022/11/19 07:09:01;;;;;;;25.20;14.18;;;-4.20;99.90;;;;;;5061054;28;20497;-85
2022/11/19 07:11:27;;;;;;;23.02;13.43;;;-4.20;99.90;;;;;;5060347;28;20036;-84
2022/11/19 07:13:56;;;;;;;23.35;13.40;;;-4.20;99.90;;;;;;5059120;28;20020;-84
2022/11/19 07:16:23;;;;;;;22.55;13.63;;;-4.20;99.90;;;;;;5064001;28;20036;-84
2022/11/19 07:18:49;;;;;;;22.13;12.55;;;-4.10;99.90;;;;;;5061969;28;20358;-84
2022/11/19 07:21:14;;;;;;;19.10;11.57;;;-4.10;99.90;;;;;;5063390;28;20431;-85
2022/11/19 07:23:40;;;;;;;22.55;13.00;;;-4.20;99.90;;;;;;5063148;28;20032;-83
2022/11/19 07:26:05;;;;;;;28.42;13.88;;;-4.10;99.90;;;;;;5066142;28;20035;-84
2022/11/19 07:28:32;;;;;;;19.15;11.95;;;-4.10;99.90;;;;;;5065463;28;20020;-84
2022/11/19 07:30:58;;;;;;;20.40;12.32;;;-4.10;99.90;;;;;;5061500;28;20041;-84
2022/11/19 07:33:24;;;;;;;19.98;12.30;;;-4.00;99.90;;;;;;5066649;28;20021;-83
2022/11/19 07:35:49;;;;;;;18.80;11.20;;;-4.00;99.90;;;;;;5062961;28;20016;-83
2022/11/19 07:38:15;;;;;;;22.73;11.75;;;-3.90;99.90;;;;;;5066504;28;20099;-83
2022/11/19 07:40:40;;;;;;;23.30;13.43;;;-3.90;99.90;;;;;;5063960;28;20021;-83
2022/11/19 07:43:06;;;;;;;26.38;14.93;;;-3.90;99.90;;;;;;5064690;28;20024;-83
2022/11/19 07:45:31;;;;;;;25.65;14.98;;;-3.90;99.90;;;;;;5066454;28;20024;-84
2022/11/19 07:47:57;;;;;;;23.95;13.63;;;-3.90;99.90;;;;;;5064883;28;20021;-84
2022/11/19 07:50:23;;;;;;;22.98;13.15;;;-3.80;99.90;;;;;;5065698;28;20055;-84
2022/11/19 07:52:48;;;;;;;28.45;15.02;;;-3.80;99.90;;;;;;5066850;28;20343;-84
2022/11/19 07:55:14;;;;;;;25.38;14.65;;;-3.70;99.90;;;;;;5066089;28;20021;-84
2022/11/19 07:57:43;;;;;;;25.98;14.95;;;-3.60;99.90;;;;;;5061362;28;20021;-83
2022/11/19 08:00:09;;;;;;;27.17;15.43;;;-3.60;99.90;;;;;;5060014;28;20029;-83
2022/11/19 08:02:35;;;;;;;30.48;16.90;;;-3.60;99.90;;;;;;5062096;28;20029;-83
2022/11/19 08:05:01;;;;;;;28.27;14.88;;;-3.50;99.90;;;;;;5075530;28;20028;-83
2022/11/19 08:07:26;;;;;;;23.70;14.35;;;-3.50;99.90;;;;;;5057192;28;20469;-83
2022/11/19 08:09:52;;;;;;;24.75;14.65;;;-3.50;99.90;;;;;;5065752;28;20016;-83
2022/11/19 08:12:17;;;;;;;22.45;14.70;;;-3.40;99.90;;;;;;5063793;28;20469;-83
2022/11/19 08:14:43;;;;;;;23.92;14.80;;;-3.30;99.90;;;;;;5061215;28;20020;-83
2022/11/19 08:19:53;;;;;;;21.10;13.23;;;-3.20;99.90;;;;;;5063579;28;20109;-82
2022/11/19 08:22:18;;;;;;;28.80;17.90;;;-3.10;99.90;;;;;;5067684;28;20071;-84
2022/11/19 08:24:44;;;;;;;41.85;22.67;;;-3.10;99.90;;;;;;5064888;28;20025;-84
2022/11/19 08:27:09;;;;;;;50.70;28.98;;;-3.00;99.90;;;;;;5061872;28;20027;-83
2022/11/19 08:29:35;;;;;;;42.85;26.88;;;-3.00;99.90;;;;;;5061808;28;20025;-84
2022/11/19 08:32:01;;;;;;;46.40;25.50;;;-2.90;99.90;;;;;;5064370;28;20028;-84
2022/11/19 08:34:31;;;;;;;45.67;25.38;;;-2.80;99.90;;;;;;5064790;28;20012;-83
2022/11/19 08:36:56;;;;;;;47.30;26.20;;;-2.70;99.90;;;;;;5058743;28;20090;-84
2022/11/19 08:39:22;;;;;;;44.13;23.95;;;-2.60;99.90;;;;;;5064753;28;20024;-83
2022/11/19 08:44:31;;;;;;;38.85;23.13;;;-2.50;99.90;;;;;;5061260;28;20067;-84
2022/11/19 08:46:57;;;;;;;37.65;21.90;;;-2.40;99.90;;;;;;5064873;28;20060;-84
2022/11/19 08:49:22;;;;;;;33.15;19.45;;;-2.30;99.90;;;;;;5063415;28;20102;-84
2022/11/19 08:51:48;;;;;;;40.72;21.50;;;-2.20;99.90;;;;;;5065389;28;20074;-84
2022/11/19 08:54:14;;;;;;;35.47;22.42;;;-2.20;99.90;;;;;;5061700;28;20040;-84
2022/11/19 08:56:39;;;;;;;33.33;19.30;;;-2.10;99.90;;;;;;5062981;28;20016;-84
2022/11/19 08:59:05;;;;;;;33.65;19.90;;;-2.00;99.90;;;;;;5060472;28;20070;-84
2022/11/19 09:01:34;;;;;;;33.20;18.48;;;-2.00;99.90;;;;;;5056446;28;20024;-84
2022/11/19 09:03:59;;;;;;;30.08;18.45;;;-1.90;99.90;;;;;;5062387;28;20017;-84
2022/11/19 09:06:25;;;;;;;33.53;19.98;;;-1.90;99.90;;;;;;5065890;28;20438;-84
2022/11/19 09:08:50;;;;;;;35.03;20.75;;;-1.80;99.90;;;;;;5066638;28;20066;-83
2022/11/19 09:11:19;;;;;;;37.38;21.92;;;-1.80;99.90;;;;;;5065899;28;20370;-83
2022/11/19 09:13:45;;;;;;;35.55;20.33;;;-1.70;99.90;;;;;;5069778;28;20466;-84
2022/11/19 09:16:11;;;;;;;32.80;20.05;;;-1.60;99.90;;;;;;5068777;28;20107;-91
2022/11/19 09:18:38;;;;;;;39.40;22.38;;;-1.60;99.90;;;;;;5064564;28;20028;-83
2022/11/19 09:21:06;;;;;;;37.42;21.15;;;-1.60;99.90;;;;;;5068833;28;20098;-84
2022/11/19 09:23:31;;;;;;;38.90;21.15;;;-1.60;99.90;;;;;;5064595;28;20028;-84
2022/11/19 09:25:59;;;;;;;41.40;23.95;;;-1.50;99.90;;;;;;5070126;28;20044;-85
2022/11/19 09:28:29;;;;;;;42.17;24.75;;;-1.50;99.90;;;;;;5068497;28;20058;-84
2022/11/19 09:31:33;;;;;;;37.50;21.80;;;-1.50;99.90;;;;;;5051578;28;20060;-85
2022/11/19 09:33:59;;;;;;;41.22;23.20;;;-1.50;99.90;;;;;;5055864;28;20029;-85
2022/11/19 09:36:24;;;;;;;56.00;27.42;;;-1.50;99.90;;;;;;5058491;28;20028;-84
2022/11/19 09:38:55;;;;;;;37.67;21.90;;;-1.50;99.90;;;;;;5047893;28;20017;-84
2022/11/19 09:41:45;;;;;;;37.80;19.70;;;-1.40;99.90;;;;;;5053065;28;20025;-84
2022/11/19 09:44:22;;;;;;;32.88;20.20;;;-1.40;99.90;;;;;;5049609;28;20013;-86
2022/11/19 09:47:03;;;;;;;33.83;19.40;;;-1.40;99.90;;;;;;5052296;28;20028;-85
2022/11/19 09:49:44;;;;;;;33.17;19.85;;;-1.30;99.90;;;;;;5053138;28;20041;-86
2022/11/19 09:52:14;;;;;;;41.00;20.23;;;-1.40;99.90;;;;;;5047617;28;20021;-85
2022/11/19 09:54:48;;;;;;;31.98;19.70;;;-1.30;99.90;;;;;;5048853;28;20025;-85
2022/11/19 09:57:20;;;;;;;35.45;18.67;;;-1.30;99.90;;;;;;5048950;28;20037;-85
2022/11/19 09:59:48;;;;;;;32.83;18.40;;;-1.30;99.90;;;;;;5045933;28;20029;-85
2022/11/19 10:02:21;;;;;;;30.77;18.40;;;-1.30;99.90;;;;;;5046647;28;20013;-84
2022/11/19 10:04:49;;;;;;;28.00;17.58;;;-1.30;99.90;;;;;;5054527;28;20025;-85
2022/11/19 10:07:25;;;;;;;27.40;16.67;;;-1.30;99.90;;;;;;5050412;28;20527;-85
2022/11/19 10:10:09;;;;;;;28.55;17.65;;;-1.30;99.90;;;;;;5048467;28;20033;-84
2022/11/19 10:12:53;;;;;;;30.50;17.58;;;-1.40;99.90;;;;;;5051487;28;20036;-85
2022/11/19 10:15:46;;;;;;;28.63;17.30;;;-1.40;99.90;;;;;;5048108;28;20021;-85
2022/11/19 10:18:25;;;;;;;37.28;21.55;;;-1.50;99.90;;;;;;5041865;28;20029;-84
2022/11/19 10:20:55;;;;;;;32.47;19.58;;;-1.50;99.90;;;;;;5042491;28;20112;-85
2022/11/19 10:23:50;;;;;;;32.58;18.90;;;-1.50;99.90;;;;;;5045546;28;20033;-86
2022/11/19 10:26:22;;;;;;;29.33;18.08;;;-1.40;99.90;;;;;;5053183;28;20056;-82
2022/11/19 10:28:54;;;;;;;34.67;19.50;;;-1.30;99.90;;;;;;5048563;28;20021;-86
2022/11/19 10:31:35;;;;;;;30.63;18.73;;;-1.40;99.90;;;;;;5047779;28;20041;-84
2022/11/19 10:34:10;;;;;;;31.40;19.58;;;-1.30;99.90;;;;;;5044411;28;20373;-85
2022/11/19 10:36:43;;;;;;;28.00;17.45;;;-1.30;99.90;;;;;;5057395;28;20024;-86
2022/11/19 10:39:15;;;;;;;30.65;18.52;;;-1.20;99.90;;;;;;5048132;28;20013;-86
2022/11/19 10:41:40;;;;;;;40.13;20.75;;;-1.20;99.90;;;;;;5047383;28;20392;-85
2022/11/19 10:44:38;;;;;;;31.52;19.33;;;-1.10;99.90;;;;;;5042809;28;20112;-84
2022/11/19 10:47:27;;;;;;;37.45;20.00;;;-1.10;99.90;;;;;;5033659;28;20029;-85
2022/11/19 10:49:54;;;;;;;34.03;19.75;;;-1.00;99.90;;;;;;5036648;28;20051;-85
2022/11/19 10:52:30;;;;;;;29.80;19.27;;;-1.00;99.90;;;;;;5046301;28;20021;-83
2022/11/19 10:55:22;;;;;;;28.70;17.20;;;-1.00;99.90;;;;;;5035181;28;20072;-84
2022/11/19 10:57:48;;;;;;;33.67;16.85;;;-0.90;99.90;;;;;;5036492;28;20055;-85
2022/11/19 11:00:15;;;;;;;29.27;16.08;;;-0.90;99.90;;;;;;5039037;28;20323;-84
2022/11/19 11:02:48;;;;;;;31.75;18.50;;;-1.00;99.90;;;;;;5028675;28;20021;-84
2022/11/19 11:05:16;;;;;;;30.45;16.85;;;-0.90;99.90;;;;;;5030189;28;20032;-85
2022/11/19 11:07:53;;;;;;;32.47;19.52;;;-0.90;99.90;;;;;;5041177;28;20026;-83
2022/11/19 11:10:33;;;;;;;28.92;17.13;;;-0.90;99.90;;;;;;5039766;28;20036;-85
2022/11/19 11:16:03;;;;;;;24.80;15.63;;;-0.80;99.90;;;;;;5042047;28;20041;-86
2022/11/19 11:18:30;;;;;;;38.25;21.08;;;-0.80;99.90;;;;;;5040396;28;20032;-86
2022/11/19 11:20:56;;;;;;;37.42;21.48;;;-0.80;99.90;;;;;;5033520;28;20025;-86
2022/11/19 11:23:27;;;;;;;38.08;21.48;;;-0.70;99.90;;;;;;5041879;28;20337;-84
2022/11/19 11:26:11;;;;;;;36.85;23.35;;;-0.70;99.90;;;;;;5031122;28;20049;-85
2022/11/19 11:28:54;;;;;;;49.22;26.05;;;-0.70;99.90;;;;;;5034390;28;20368;-85
2022/11/19 11:31:33;;;;;;;44.40;23.05;;;-0.70;99.90;;;;;;5030344;28;20441;-85
2022/11/19 11:34:01;;;;;;;37.08;19.48;;;-0.60;99.90;;;;;;5036871;28;20023;-86
2022/11/19 11:36:29;;;;;;;36.60;19.20;;;-0.60;99.90;;;;;;5029922;28;20124;-85
2022/11/19 11:38:57;;;;;;;31.85;19.00;;;-0.60;99.90;;;;;;5037842;28;20022;-87
2022/11/19 11:41:38;;;;;;;32.70;18.05;;;-0.60;99.90;;;;;;5033543;28;20477;-85
2022/11/19 11:44:18;;;;;;;31.45;18.05;;;-0.60;99.90;;;;;;5035745;28;20026;-86
2022/11/19 11:46:47;;;;;;;33.88;18.08;;;-0.50;99.90;;;;;;5035374;28;20021;-85
2022/11/19 11:49:33;;;;;;;31.50;18.30;;;-0.50;99.90;;;;;;5032661;28;20059;-86
2022/11/19 11:52:08;;;;;;;29.35;17.13;;;-0.50;99.90;;;;;;5039004;28;20029;-86
2022/11/19 11:54:35;;;;;;;26.35;16.35;;;-0.40;99.90;;;;;;5024429;28;20033;-86
2022/11/19 11:57:32;;;;;;;26.73;15.52;;;-0.40;99.90;;;;;;5046475;28;20089;-85
2022/11/19 11:59:59;;;;;;;27.80;16.02;;;-0.40;99.90;;;;;;5029512;28;20636;-87
2022/11/19 12:02:31;;;;;;;28.55;16.20;;;-0.40;99.90;;;;;;5037079;28;20543;-86
2022/11/19 12:05:15;;;;;;;25.60;15.05;;;-0.30;99.90;;;;;;5038281;28;20032;-88
2022/11/19 12:08:05;;;;;;;22.33;13.63;;;-0.30;99.90;;;;;;5034463;28;20233;-89
2022/11/19 12:10:43;;;;;;;26.55;14.23;;;-0.30;99.90;;;;;;5029032;28;20041;-89
2022/11/19 12:13:33;;;;;;;22.38;13.38;;;-0.30;99.90;;;;;;5038763;28;20041;-88
2022/11/19 12:16:20;;;;;;;24.63;11.82;;;-0.20;99.90;;;;;;5026885;28;20358;-90
2022/11/19 12:19:04;;;;;;;19.42;12.32;;;-0.20;99.90;;;;;;5037052;28;20025;-91
2022/11/19 12:21:44;;;;;;;18.23;11.23;;;-0.20;99.90;;;;;;5038660;28;20098;-91
2022/11/19 12:24:28;;;;;;;20.77;12.30;;;-0.20;99.90;;;;;;5038408;28;20046;-90
2022/11/19 12:27:00;;;;;;;21.63;11.52;;;-0.10;99.90;;;;;;5036679;28;20018;-92
2022/11/19 12:29:42;;;;;;;19.30;12.77;;;-0.10;99.90;;;;;;5028233;28;20390;-85
2022/11/19 12:32:49;;;;;;;17.70;12.20;;;-0.10;99.90;;;;;;5035817;28;20186;-93
2022/11/19 12:35:25;;;;;;;21.63;13.00;;;-0.10;99.90;;;;;;5032142;28;20033;-92
2022/11/19 12:38:16;;;;;;;19.92;12.00;;;0.00;99.90;;;;;;5037306;28;20049;-90
2022/11/19 12:41:05;;;;;;;18.20;11.65;;;0.10;99.90;;;;;;5035757;28;20040;-91
2022/11/19 12:43:39;;;;;;;17.42;11.05;;;0.10;99.90;;;;;;5027393;28;20158;-90
2022/11/19 12:46:24;;;;;;;22.90;13.20;;;0.10;99.90;;;;;;5029867;28;20021;-91
2022/11/19 12:49:11;;;;;;;22.52;14.10;;;0.20;99.90;;;;;;5030437;28;20029;-87
2022/11/19 12:51:51;;;;;;;24.05;14.55;;;0.20;99.90;;;;;;5034033;28;20138;-89
2022/11/19 12:54:45;;;;;;;24.50;13.82;;;0.10;99.90;;;;;;5034521;28;20104;-88
2022/11/19 12:57:32;;;;;;;24.75;13.80;;;0.10;99.90;;;;;;5027541;28;20202;-88
2022/11/19 13:00:08;;;;;;;27.67;15.35;;;0.10;99.90;;;;;;5042729;28;20461;-90
2022/11/19 13:02:47;;;;;;;30.67;17.65;;;0.10;99.90;;;;;;5030640;28;20120;-83
2022/11/19 13:05:23;;;;;;;31.27;16.00;;;0.10;99.90;;;;;;5026263;28;20045;-85